Time;durP1;ratioP1;P1;durP2;ratioP2;P2;SDS_P1;SDS_P2;PMS_P1;PMS_P2;Temp;Humidity;BMP_temperature;BMP_pressure;BME280_temperature;BME280_humidity;BME280_pressure;Samples;Min_cycle;Max_cycle;Signal;HPM_P1;HPM_P2
2021/11/28 00:02:26;;;;;;;23.48;14.15;;;10.60;99.90;;;;;;6067543;23;20075;-82
2021/11/28 00:04:55;;;;;;;23.58;14.20;;;10.60;99.90;;;;;;6068053;23;20022;-84
2021/11/28 00:10:04;;;;;;;18.88;12.80;;;10.80;99.90;;;;;;6042530;23;20343;-79
2021/11/28 00:17:58;;;;;;;31.92;17.38;;;11.10;99.90;;;;;;6124094;23;19913;-85
2021/11/28 00:20:25;;;;;;;23.77;14.75;;;11.10;99.90;;;;;;6126946;23;20069;-87
2021/11/28 00:22:53;;;;;;;25.25;14.18;;;10.90;99.90;;;;;;6130482;23;20301;-88
2021/11/28 00:25:21;;;;;;;22.92;15.50;;;10.90;99.90;;;;;;6129880;23;20026;-85
2021/11/28 00:27:50;;;;;;;23.48;15.38;;;10.90;99.90;;;;;;6128761;23;20085;-84
2021/11/28 00:30:24;;;;;;;26.23;15.88;;;10.80;99.90;;;;;;6104622;23;20028;-83
2021/11/28 00:32:51;;;;;;;24.00;15.90;;;10.70;99.90;;;;;;6104320;23;20055;-84
2021/11/28 00:35:19;;;;;;;22.52;16.90;;;10.70;99.90;;;;;;6128658;23;20077;-84
2021/11/28 00:37:46;;;;;;;26.40;16.27;;;10.70;99.90;;;;;;6104397;23;20473;-83
2021/11/28 00:40:13;;;;;;;25.83;16.90;;;10.70;99.90;;;;;;6128448;23;20014;-85
2021/11/28 00:42:41;;;;;;;26.75;15.98;;;10.60;99.90;;;;;;6129309;23;20055;-84
2021/11/28 00:45:10;;;;;;;21.73;14.60;;;10.60;99.90;;;;;;6128509;23;20362;-80
2021/11/28 00:47:38;;;;;;;23.52;15.63;;;10.60;99.90;;;;;;6128362;23;20088;-83
2021/11/28 00:52:39;;;;;;;21.23;14.60;;;10.50;99.90;;;;;;6127452;23;20108;-83
2021/11/28 00:55:08;;;;;;;20.23;15.20;;;10.50;99.90;;;;;;6154487;23;20013;-83
2021/11/28 00:57:36;;;;;;;19.75;14.20;;;10.60;99.90;;;;;;6154858;23;20021;-82
2021/11/28 01:00:07;;;;;;;24.92;15.50;;;10.60;99.90;;;;;;6128605;23;20016;-82
2021/11/28 01:02:36;;;;;;;24.77;16.15;;;10.60;99.90;;;;;;6128478;23;20021;-83
2021/11/28 01:05:08;;;;;;;24.73;17.00;;;10.60;99.90;;;;;;6153556;23;20013;-83
2021/11/28 01:07:38;;;;;;;32.85;20.33;;;10.50;99.90;;;;;;6103329;23;20095;-83
2021/11/28 01:10:08;;;;;;;26.70;18.50;;;10.40;99.90;;;;;;6127543;23;20026;-85
2021/11/28 01:12:36;;;;;;;28.93;18.67;;;10.10;99.90;;;;;;6127490;23;20018;-83
2021/11/28 01:15:05;;;;;;;31.10;19.65;;;10.20;99.90;;;;;;6127934;23;20239;-83
2021/11/28 01:17:34;;;;;;;32.88;20.00;;;10.20;99.90;;;;;;6103682;23;20383;-83
2021/11/28 01:20:03;;;;;;;28.63;18.77;;;10.20;99.90;;;;;;6128208;23;20036;-84
2021/11/28 01:22:31;;;;;;;22.95;16.35;;;10.30;99.90;;;;;;6128695;23;20332;-83
2021/11/28 01:24:58;;;;;;;23.15;15.52;;;10.30;99.90;;;;;;6128716;23;20021;-82
2021/11/28 01:27:25;;;;;;;21.38;14.13;;;10.30;99.90;;;;;;6128094;23;20056;-83
2021/11/28 01:29:53;;;;;;;22.08;15.18;;;10.30;99.90;;;;;;6103933;23;20017;-82
2021/11/28 01:32:23;;;;;;;29.20;16.13;;;10.40;99.90;;;;;;6153531;23;20324;-84
2021/11/28 01:34:50;;;;;;;25.42;16.63;;;10.30;99.90;;;;;;6104022;23;20077;-84
2021/11/28 01:37:18;;;;;;;29.83;17.65;;;10.30;99.90;;;;;;6154062;23;20009;-84
2021/11/28 01:39:47;;;;;;;28.65;17.75;;;10.20;99.90;;;;;;6128503;23;20021;-85
2021/11/28 01:42:14;;;;;;;30.75;16.80;;;10.20;99.90;;;;;;6103856;23;20101;-85
2021/11/28 01:44:42;;;;;;;26.80;17.52;;;10.20;99.90;;;;;;6103913;23;20048;-84
2021/11/28 01:47:09;;;;;;;25.30;17.30;;;10.20;99.90;;;;;;6128116;23;20018;-83
2021/11/28 01:49:36;;;;;;;30.23;17.58;;;10.20;99.90;;;;;;6103792;23;20100;-83
2021/11/28 01:52:29;;;;;;;26.48;17.40;;;10.10;99.90;;;;;;6128089;23;20033;-85
2021/11/28 01:54:56;;;;;;;25.67;16.55;;;10.10;99.90;;;;;;6129141;23;20026;-87
2021/11/28 01:57:23;;;;;;;27.02;18.33;;;10.00;99.90;;;;;;6154070;23;20044;-85
2021/11/28 01:59:51;;;;;;;31.23;18.67;;;10.00;99.90;;;;;;6103875;23;20023;-81
2021/11/28 02:02:18;;;;;;;27.33;17.75;;;10.00;99.90;;;;;;6128606;23;20022;-80
2021/11/28 02:04:48;;;;;;;28.38;17.58;;;10.00;99.90;;;;;;6127920;23;20021;-79
2021/11/28 02:07:15;;;;;;;25.63;17.83;;;10.00;99.90;;;;;;6115753;23;20358;-82
2021/11/28 02:09:43;;;;;;;26.13;18.00;;;9.90;99.90;;;;;;6128356;23;20028;-81
2021/11/28 02:12:10;;;;;;;28.60;17.35;;;9.80;99.90;;;;;;6127668;23;20070;-80
2021/11/28 02:14:37;;;;;;;28.58;18.17;;;9.60;99.90;;;;;;6154254;23;20021;-82
2021/11/28 02:17:05;;;;;;;26.48;17.48;;;9.70;99.90;;;;;;6111069;23;20109;-81
2021/11/28 02:19:32;;;;;;;26.27;16.65;;;9.70;99.90;;;;;;6099340;23;20383;-79
2021/11/28 02:22:00;;;;;;;28.25;17.65;;;9.70;99.90;;;;;;6074140;23;20108;-83
2021/11/28 02:24:27;;;;;;;23.77;17.13;;;9.70;99.90;;;;;;6124846;23;20384;-80
2021/11/28 02:26:55;;;;;;;25.88;17.92;;;9.70;99.90;;;;;;6098436;23;20049;-80
2021/11/28 02:29:22;;;;;;;26.55;17.92;;;9.60;99.90;;;;;;6124095;23;20098;-79
2021/11/28 02:31:49;;;;;;;28.02;17.30;;;9.50;99.90;;;;;;6098708;23;20388;-84
2021/11/28 02:34:19;;;;;;;28.73;17.15;;;9.40;99.90;;;;;;6124564;23;20025;-82
2021/11/28 02:36:53;;;;;;;23.52;17.00;;;9.50;99.90;;;;;;6097721;23;20045;-82
2021/11/28 02:39:21;;;;;;;26.98;17.88;;;9.60;99.90;;;;;;6098753;23;20022;-80
2021/11/28 02:41:49;;;;;;;32.28;18.55;;;9.60;99.90;;;;;;6075055;23;20474;-83
2021/11/28 02:44:16;;;;;;;24.55;17.48;;;9.50;99.90;;;;;;6098348;23;20106;-81
2021/11/28 02:46:45;;;;;;;28.95;18.17;;;9.40;99.90;;;;;;6098668;23;20026;-80
2021/11/28 02:49:15;;;;;;;27.23;18.45;;;9.50;99.90;;;;;;6124630;23;20351;-81
2021/11/28 02:51:43;;;;;;;;;;;9.60;99.90;;;;;;6074942;23;20022;-80
2021/11/28 02:54:10;;;;;;;24.25;17.35;;;9.40;99.90;;;;;;6098439;23;20299;-84
2021/11/28 02:56:42;;;;;;;30.05;17.15;;;9.40;99.90;;;;;;6074300;23;20050;-85
2021/11/28 02:59:10;;;;;;;21.98;16.00;;;9.50;99.90;;;;;;6124465;23;20112;-83
2021/11/28 03:01:37;;;;;;;25.67;17.20;;;9.50;99.90;;;;;;6075055;23;20026;-82
2021/11/28 03:04:08;;;;;;;;;;;9.50;99.90;;;;;;6099836;23;20032;-83
2021/11/28 03:06:36;;;;;;;25.77;16.67;;;9.50;99.90;;;;;;6123741;23;20003;-83
2021/11/28 03:09:04;;;;;;;26.33;16.45;;;9.50;99.90;;;;;;6124470;23;20014;-83
2021/11/28 03:11:32;;;;;;;26.30;17.38;;;9.40;99.90;;;;;;6124023;23;20018;-83
2021/11/28 03:13:59;;;;;;;25.58;17.05;;;9.50;99.90;;;;;;6124206;23;20096;-83
2021/11/28 03:16:27;;;;;;;27.85;16.55;;;9.60;99.90;;;;;;6082391;23;20100;-81
2021/11/28 03:18:58;;;;;;;24.98;16.65;;;9.50;99.90;;;;;;6105313;23;20025;-82
2021/11/28 03:21:38;;;;;;;24.27;15.35;;;9.30;99.90;;;;;;6132339;23;20013;-82
2021/11/28 03:24:06;;;;;;;25.52;15.63;;;9.10;99.90;;;;;;6156044;23;20088;-82
2021/11/28 03:26:37;;;;;;;28.00;16.85;;;9.10;99.90;;;;;;6129937;23;20018;-82
2021/11/28 03:29:09;;;;;;;25.65;17.00;;;9.40;99.90;;;;;;6129909;23;20021;-84
2021/11/28 03:31:40;;;;;;;22.70;15.95;;;9.60;99.90;;;;;;6129833;23;20351;-80
2021/11/28 03:34:09;;;;;;;26.92;17.05;;;9.60;99.90;;;;;;6155406;23;20031;-81
2021/11/28 03:36:41;;;;;;;24.13;16.48;;;9.60;99.90;;;;;;6156024;23;20018;-84
2021/11/28 03:39:11;;;;;;;24.80;16.48;;;9.50;99.90;;;;;;6105722;23;20033;-87
2021/11/28 03:41:43;;;;;;;26.65;16.80;;;9.50;99.90;;;;;;6156456;23;20014;-84
2021/11/28 03:44:10;;;;;;;24.85;16.13;;;9.50;99.90;;;;;;6106371;23;20022;-85
2021/11/28 03:46:38;;;;;;;23.73;15.43;;;9.50;99.90;;;;;;6129993;23;20028;-84
2021/11/28 03:49:05;;;;;;;23.05;15.93;;;9.50;99.90;;;;;;6105714;23;20032;-83
2021/11/28 03:51:33;;;;;;;26.27;16.73;;;9.50;99.90;;;;;;6156401;23;20017;-88
2021/11/28 03:54:00;;;;;;;24.17;17.25;;;9.40;99.90;;;;;;6130455;23;20355;-85
2021/11/28 03:56:28;;;;;;;25.17;16.85;;;9.40;99.90;;;;;;6129522;23;20108;-84
2021/11/28 03:58:55;;;;;;;23.25;15.60;;;9.40;99.90;;;;;;6129528;23;20439;-83
2021/11/28 04:01:23;;;;;;;24.80;15.68;;;9.30;99.90;;;;;;6105137;23;20443;-82
2021/11/28 04:03:51;;;;;;;24.02;15.82;;;9.40;99.90;;;;;;6129637;23;20074;-81
2021/11/28 04:06:21;;;;;;;27.20;16.42;;;9.30;99.90;;;;;;6129680;23;20021;-88
2021/11/28 04:08:50;;;;;;;29.33;16.33;;;8.90;99.90;;;;;;6130201;23;20549;-82
2021/11/28 04:11:18;;;;;;;22.90;16.73;;;8.80;99.90;;;;;;6155422;23;20021;-87
2021/11/28 04:13:45;;;;;;;26.88;16.75;;;8.90;99.90;;;;;;6129300;23;20359;-84
2021/11/28 04:16:13;;;;;;;22.60;15.63;;;8.80;99.90;;;;;;6129997;23;20017;-86
2021/11/28 04:18:46;;;;;;;26.67;16.63;;;9.00;99.90;;;;;;6105515;23;20519;-84
2021/11/28 04:21:14;;;;;;;27.65;15.23;;;9.10;99.90;;;;;;6129263;23;20097;-86
2021/11/28 04:23:42;;;;;;;24.52;14.80;;;8.90;99.90;;;;;;6155721;23;20356;-83
2021/11/28 04:26:10;;;;;;;22.40;16.38;;;8.70;99.90;;;;;;6104807;23;20044;-82
2021/11/28 04:28:37;;;;;;;26.00;15.88;;;8.90;99.90;;;;;;6128913;23;20025;-81
2021/11/28 04:31:04;;;;;;;22.48;15.00;;;8.90;99.90;;;;;;6155272;23;20140;-83
2021/11/28 04:33:32;;;;;;;22.65;14.35;;;9.10;99.90;;;;;;6128781;23;20025;-84
2021/11/28 04:35:59;;;;;;;22.20;15.00;;;9.10;99.90;;;;;;6155059;23;20121;-82
2021/11/28 04:38:27;;;;;;;24.50;15.77;;;9.00;99.90;;;;;;6128548;23;20021;-82
2021/11/28 04:40:55;;;;;;;25.77;15.45;;;9.00;99.90;;;;;;6154793;23;20018;-82
2021/11/28 04:43:23;;;;;;;22.75;15.55;;;9.10;99.90;;;;;;6105166;23;20502;-82
2021/11/28 04:45:50;;;;;;;28.63;15.23;;;8.80;99.90;;;;;;6155224;23;20021;-82
2021/11/28 04:48:18;;;;;;;23.20;15.85;;;8.90;99.90;;;;;;6155165;23;20045;-83
2021/11/28 04:50:45;;;;;;;26.05;15.90;;;8.80;99.90;;;;;;6105638;23;20108;-83
2021/11/28 04:53:12;;;;;;;21.58;14.15;;;8.80;99.90;;;;;;6129610;23;20069;-84
2021/11/28 04:55:40;;;;;;;20.70;13.30;;;8.70;99.90;;;;;;6128711;23;20052;-83
2021/11/28 04:58:07;;;;;;;21.55;13.82;;;8.70;99.90;;;;;;6105066;23;20041;-82
2021/11/28 05:00:34;;;;;;;21.05;12.68;;;8.70;99.90;;;;;;6154697;23;20041;-80
2021/11/28 05:03:02;;;;;;;21.90;12.70;;;8.90;99.90;;;;;;6128761;23;20384;-83
2021/11/28 05:05:30;;;;;;;22.20;13.27;;;8.90;99.90;;;;;;6128359;23;20036;-83
2021/11/28 05:07:57;;;;;;;19.13;14.13;;;8.80;99.90;;;;;;6129174;23;20018;-88
2021/11/28 05:11:04;;;;;;;23.52;13.20;;;8.70;99.90;;;;;;6064756;23;20070;-80
2021/11/28 05:13:31;;;;;;;16.15;12.68;;;8.50;99.90;;;;;;6063996;23;20030;-84
2021/11/28 05:15:59;;;;;;;20.10;13.48;;;8.40;99.90;;;;;;6040123;23;20361;-83
2021/11/28 05:18:28;;;;;;;18.65;13.48;;;8.20;99.90;;;;;;6041024;23;20310;-84
2021/11/28 05:20:56;;;;;;;18.85;12.77;;;8.40;99.90;;;;;;6064183;23;20037;-84
2021/11/28 05:23:23;;;;;;;18.08;12.70;;;8.60;99.90;;;;;;6065094;23;20421;-85
2021/11/28 05:25:51;;;;;;;18.77;12.90;;;8.70;99.90;;;;;;6018061;23;20074;-86
2021/11/28 05:28:20;;;;;;;22.88;13.10;;;8.80;99.90;;;;;;6041225;23;20569;-85
2021/11/28 05:30:51;;;;;;;18.70;12.65;;;8.70;99.90;;;;;;6064652;23;20023;-88
2021/11/28 05:33:18;;;;;;;18.92;13.75;;;8.80;99.90;;;;;;6041631;23;20118;-85
2021/11/28 05:35:47;;;;;;;18.95;13.25;;;8.70;99.90;;;;;;6136829;23;20039;-85
2021/11/28 05:38:14;;;;;;;22.10;13.43;;;8.70;99.90;;;;;;6104675;23;20021;-83
2021/11/28 05:40:41;;;;;;;19.10;12.60;;;8.70;99.90;;;;;;6128562;23;20013;-83
2021/11/28 05:43:30;;;;;;;22.48;13.13;;;8.70;99.90;;;;;;6154964;23;20088;-82
2021/11/28 05:58:27;;;;;;;25.38;16.15;;;8.20;99.90;;;;;;6137808;23;20025;-79
2021/11/28 06:00:57;;;;;;;27.73;17.02;;;8.40;99.90;;;;;;6128323;23;20021;-82
2021/11/28 06:03:24;;;;;;;22.08;16.42;;;8.50;99.90;;;;;;6103905;23;20026;-82
2021/11/28 06:06:01;;;;;;;27.38;16.90;;;8.70;99.90;;;;;;6103743;23;20388;-83
2021/11/28 06:08:29;;;;;;;26.13;17.52;;;8.60;99.90;;;;;;6127769;23;20017;-84
2021/11/28 06:11:22;;;;;;;25.75;17.00;;;8.60;99.90;;;;;;6128637;23;20339;-84
2021/11/28 06:13:51;;;;;;;26.48;16.85;;;8.70;99.90;;;;;;6104178;23;20045;-86
2021/11/28 06:16:19;;;;;;;27.67;17.25;;;8.50;99.90;;;;;;6154706;23;20088;-84
2021/11/28 06:18:46;;;;;;;25.42;18.55;;;8.10;99.90;;;;;;6127704;23;20018;-82
2021/11/28 06:21:14;;;;;;;24.30;16.90;;;8.30;99.90;;;;;;6127838;23;20025;-84
2021/11/28 06:23:41;;;;;;;23.67;16.10;;;8.20;99.90;;;;;;6152907;23;20092;-84
2021/11/28 06:26:08;;;;;;;19.67;13.75;;;8.10;99.90;;;;;;6153647;23;20418;-84
2021/11/28 06:28:36;;;;;;;20.17;14.63;;;8.00;99.90;;;;;;6128115;23;20028;-79
2021/11/28 06:31:03;;;;;;;17.05;13.05;;;8.20;99.90;;;;;;6128162;23;20404;-82
2021/11/28 06:33:30;;;;;;;22.27;12.90;;;8.50;99.90;;;;;;6153953;23;20044;-83
2021/11/28 06:35:58;;;;;;;18.25;11.75;;;8.60;99.90;;;;;;6153653;23;20021;-79
2021/11/28 06:38:28;;;;;;;16.60;11.73;;;8.50;99.90;;;;;;6152511;23;20344;-83
2021/11/28 06:40:55;;;;;;;17.95;12.27;;;8.70;99.90;;;;;;6128104;23;20045;-78
2021/11/28 06:43:22;;;;;;;18.73;12.40;;;8.80;99.90;;;;;;6153749;23;20017;-82
2021/11/28 06:45:50;;;;;;;19.48;13.45;;;8.70;99.90;;;;;;6153415;23;20020;-81
2021/11/28 06:48:17;;;;;;;15.13;11.80;;;8.70;99.90;;;;;;6127361;23;20021;-83
2021/11/28 06:50:45;;;;;;;19.20;12.00;;;8.70;99.90;;;;;;6127750;23;20089;-79
2021/11/28 06:53:12;;;;;;;16.17;12.13;;;8.80;99.90;;;;;;6127554;23;20400;-84
2021/11/28 06:55:39;;;;;;;14.90;11.15;;;8.80;99.90;;;;;;6141369;23;20025;-84
2021/11/28 06:58:06;;;;;;;17.45;10.68;;;8.70;99.90;;;;;;6156786;23;20425;-86
2021/11/28 07:00:34;;;;;;;15.15;10.77;;;8.80;99.90;;;;;;6133248;23;20043;-83
2021/11/28 07:03:01;;;;;;;18.73;11.82;;;9.00;99.90;;;;;;6132867;23;20104;-83
2021/11/28 07:05:29;;;;;;;16.98;12.05;;;9.10;99.90;;;;;;6157563;23;20031;-86
2021/11/28 07:07:56;;;;;;;20.20;12.18;;;9.20;99.90;;;;;;6156905;23;20025;-84
2021/11/28 07:10:24;;;;;;;16.83;11.93;;;9.30;99.90;;;;;;6157556;23;20023;-82
2021/11/28 07:12:51;;;;;;;15.50;11.52;;;9.40;99.90;;;;;;6183523;23;20025;-85
2021/11/28 07:15:19;;;;;;;17.10;12.48;;;9.40;99.90;;;;;;6157886;23;20088;-84
2021/11/28 07:17:52;;;;;;;19.00;11.60;;;9.40;99.90;;;;;;6133519;23;20027;-80
2021/11/28 07:20:19;;;;;;;18.42;12.23;;;9.30;99.90;;;;;;6183377;23;20191;-81
2021/11/28 07:22:47;;;;;;;19.85;12.35;;;9.20;99.90;;;;;;6182967;23;20088;-83
2021/11/28 07:25:14;;;;;;;15.02;11.25;;;9.40;99.90;;;;;;6156490;23;20096;-81
2021/11/28 07:27:41;;;;;;;14.85;10.65;;;9.40;99.90;;;;;;6183380;23;20308;-81
2021/11/28 07:30:09;;;;;;;16.40;11.80;;;9.50;99.90;;;;;;6157473;23;20084;-82
2021/11/28 07:32:36;;;;;;;18.65;11.55;;;9.50;99.90;;;;;;6182917;23;20356;-83
2021/11/28 07:35:04;;;;;;;16.85;11.38;;;9.60;99.90;;;;;;6183517;23;20092;-83
2021/11/28 07:37:31;;;;;;;14.30;10.55;;;9.50;99.90;;;;;;6182402;23;20024;-82
2021/11/28 07:39:59;;;;;;;15.43;10.45;;;9.60;99.90;;;;;;6132143;23;20032;-84
2021/11/28 07:42:26;;;;;;;14.85;11.40;;;9.60;99.90;;;;;;6132116;23;20021;-81
2021/11/28 07:44:54;;;;;;;15.77;12.23;;;9.60;99.90;;;;;;6156873;23;20477;-83
2021/11/28 07:47:21;;;;;;;16.75;12.30;;;9.60;99.90;;;;;;6182858;23;20037;-84
2021/11/28 07:49:49;;;;;;;19.20;12.88;;;9.70;99.90;;;;;;6156852;23;20017;-83
2021/11/28 07:52:16;;;;;;;20.38;12.48;;;9.70;99.90;;;;;;6183127;23;20591;-86
2021/11/28 07:54:44;;;;;;;18.63;11.88;;;9.70;99.90;;;;;;6183392;23;20021;-89
2021/11/28 07:57:14;;;;;;;17.60;14.13;;;9.60;99.90;;;;;;6156412;23;20524;-85
2021/11/28 07:59:41;;;;;;;21.27;14.60;;;9.70;99.90;;;;;;6132714;23;20060;-81
2021/11/28 08:02:14;;;;;;;20.98;14.27;;;9.70;99.90;;;;;;6183263;23;20043;-82
2021/11/28 08:04:42;;;;;;;39.83;24.35;;;9.80;99.90;;;;;;6185108;23;20021;-86
2021/11/28 08:07:10;;;;;;;94.13;54.67;;;9.90;99.90;;;;;;6185584;23;20044;-84
2021/11/28 08:09:37;;;;;;;78.13;46.67;;;10.10;99.90;;;;;;6185896;23;20387;-81
2021/11/28 08:12:05;;;;;;;32.72;19.98;;;10.20;99.90;;;;;;6158813;23;20096;-87
2021/11/28 08:14:34;;;;;;;44.40;28.35;;;10.10;99.90;;;;;;6185448;23;20064;-80
2021/11/28 08:17:02;;;;;;;41.13;25.83;;;10.20;99.90;;;;;;6133704;23;20036;-83
2021/11/28 08:19:30;;;;;;;82.80;48.60;;;10.30;99.90;;;;;;6184923;23;20242;-81
2021/11/28 08:21:58;;;;;;;30.45;22.40;;;10.40;99.90;;;;;;6182175;23;20095;-83
2021/11/28 08:24:27;;;;;;;29.67;19.40;;;10.30;99.90;;;;;;6119378;23;20036;-82
2021/11/28 08:26:54;;;;;;;36.80;20.50;;;10.30;99.90;;;;;;6131205;23;20027;-81
2021/11/28 08:29:21;;;;;;;35.83;24.35;;;10.30;99.90;;;;;;6183298;23;20013;-83
2021/11/28 08:31:49;;;;;;;38.33;26.70;;;10.20;99.90;;;;;;6156843;23;20048;-80
2021/11/28 08:34:17;;;;;;;44.85;27.30;;;10.20;99.90;;;;;;6183093;23;20418;-80
2021/11/28 08:36:45;;;;;;;46.65;27.33;;;10.40;99.90;;;;;;6179395;23;20388;-81
2021/11/28 08:39:12;;;;;;;42.63;26.83;;;10.70;99.90;;;;;;6182755;23;20286;-81
2021/11/28 08:41:40;;;;;;;43.65;29.38;;;10.90;99.90;;;;;;6183603;23;20019;-84
2021/11/28 08:44:09;;;;;;;47.17;29.42;;;10.90;99.90;;;;;;6156343;23;20021;-82
2021/11/28 08:46:36;;;;;;;44.85;29.63;;;10.90;99.90;;;;;;6182893;23;20032;-81
2021/11/28 08:49:07;;;;;;;46.00;30.17;;;11.10;99.90;;;;;;6154000;23;20104;-84
2021/11/28 08:51:35;;;;;;;49.08;30.20;;;10.90;99.90;;;;;;6183438;23;20017;-79
2021/11/28 08:54:03;;;;;;;48.83;31.02;;;11.00;99.90;;;;;;6181085;23;20455;-82
2021/11/28 08:56:30;;;;;;;70.20;44.10;;;11.20;99.90;;;;;;6183197;23;20047;-83
2021/11/28 08:58:57;;;;;;;132.73;80.20;;;11.30;99.90;;;;;;6156159;23;20096;-82
2021/11/28 09:01:25;;;;;;;73.72;48.22;;;11.30;99.90;;;;;;6153815;23;20024;-83
2021/11/28 09:03:53;;;;;;;48.58;31.00;;;11.30;99.90;;;;;;6182607;23;20013;-81
2021/11/28 09:06:20;;;;;;;49.38;27.63;;;11.20;99.90;;;;;;6157340;23;20036;-82
2021/11/28 09:08:47;;;;;;;40.53;25.40;;;11.20;99.90;;;;;;6182359;23;20371;-81
2021/11/28 09:11:15;;;;;;;35.97;25.17;;;11.40;99.90;;;;;;6180961;23;20320;-81
2021/11/28 09:13:50;;;;;;;38.33;25.45;;;11.60;99.90;;;;;;6180420;23;20017;-83
2021/11/28 09:20:42;;;;;;;42.88;27.02;;;11.70;99.90;;;;;;6173671;23;20025;-82
2021/11/28 09:25:58;;;;;;;41.42;25.67;;;11.90;99.90;;;;;;6155796;23;20021;-86
2021/11/28 09:28:27;;;;;;;40.80;25.15;;;12.20;99.90;;;;;;6133907;23;20123;-84
2021/11/28 09:30:54;;;;;;;39.97;27.23;;;12.40;99.90;;;;;;6156653;23;20335;-83
2021/11/28 09:33:24;;;;;;;32.80;22.98;;;12.40;99.90;;;;;;6132027;23;20108;-84
2021/11/28 09:35:51;;;;;;;30.92;20.75;;;12.50;99.90;;;;;;6154943;23;20091;-92
2021/11/28 09:38:24;;;;;;;26.77;18.30;;;12.50;99.90;;;;;;6134733;23;20017;-90
2021/11/28 09:41:18;;;;;;;23.17;15.68;;;12.70;99.90;;;;;;6166541;23;20107;-88
2021/11/28 09:44:04;;;;;;;25.45;16.17;;;12.90;99.90;;;;;;6158444;23;20025;-89
2021/11/28 09:46:32;;;;;;;27.02;16.98;;;13.10;99.90;;;;;;6187295;23;20657;-89
2021/11/28 09:49:05;;;;;;;20.27;14.13;;;13.20;99.90;;;;;;6132767;23;20017;-83
2021/11/28 09:51:33;;;;;;;20.33;12.82;;;13.60;99.90;;;;;;6183196;23;20047;-85
2021/11/28 09:54:03;;;;;;;21.83;12.35;;;13.50;99.90;;;;;;6182276;23;20158;-85
2021/11/28 09:56:43;;;;;;;18.70;11.57;;;13.40;99.90;;;;;;6133356;23;20021;-86
2021/11/28 09:59:11;;;;;;;18.55;13.23;;;13.50;99.90;;;;;;6154419;23;20478;-82
2021/11/28 10:01:40;;;;;;;18.17;12.45;;;13.40;99.90;;;;;;6158004;23;20048;-88
2021/11/28 10:04:08;;;;;;;21.33;12.55;;;13.40;99.90;;;;;;6131340;23;20092;-83
2021/11/28 10:06:35;;;;;;;21.17;14.98;;;13.70;99.90;;;;;;6131146;23;20020;-81
2021/11/28 10:09:05;;;;;;;24.83;16.77;;;14.10;99.90;;;;;;6182766;23;20020;-82
2021/11/28 10:11:41;;;;;;;86.00;49.75;;;14.60;99.90;;;;;;6152882;23;20035;-83
2021/11/28 10:14:35;;;;;;;43.10;26.90;;;15.10;99.90;;;;;;6130385;23;20335;-85
2021/11/28 10:17:04;;;;;;;24.70;16.67;;;15.20;99.90;;;;;;6132164;23;20040;-83
2021/11/28 10:19:41;;;;;;;22.55;13.95;;;15.10;99.90;;;;;;6157025;23;20108;-83
2021/11/28 10:22:09;;;;;;;18.63;12.23;;;14.90;99.90;;;;;;6180395;23;20021;-82
2021/11/28 10:25:21;;;;;;;17.70;11.43;;;15.00;99.90;;;;;;6130789;23;20023;-86
2021/11/28 10:28:12;;;;;;;16.50;10.35;;;15.00;99.90;;;;;;6158125;23;20021;-82
2021/11/28 10:30:43;;;;;;;36.92;21.35;;;15.10;99.90;;;;;;6186370;23;20375;-86
2021/11/28 10:33:17;;;;;;;65.03;40.78;;;15.30;99.90;;;;;;6157458;23;20024;-85
2021/11/28 10:40:07;;;;;;;21.52;14.43;;;16.50;99.90;;;;;;6183959;23;20441;-84
2021/11/28 10:46:29;;;;;;;18.58;10.10;;;16.80;99.90;;;;;;6149621;23;20025;-85
2021/11/28 10:49:17;;;;;;;15.43;10.52;;;16.70;99.90;;;;;;6131091;23;20068;-85
2021/11/28 10:55:55;;;;;;;16.08;10.38;;;16.50;99.90;;;;;;6182077;23;20036;-85
2021/11/28 10:58:30;;;;;;;16.30;10.50;;;16.00;99.90;;;;;;6152030;23;20071;-85
2021/11/28 11:01:11;;;;;;;15.93;9.85;;;15.60;99.90;;;;;;6131479;23;20108;-84
2021/11/28 11:04:19;;;;;;;17.02;10.88;;;15.50;99.90;;;;;;6134030;23;20056;-84
2021/11/28 11:07:11;;;;;;;17.27;10.93;;;15.60;99.90;;;;;;6130703;23;20025;-83
2021/11/28 11:09:44;;;;;;;13.45;9.95;;;15.80;99.90;;;;;;6129305;23;20021;-83
2021/11/28 11:12:28;;;;;;;16.58;10.38;;;15.90;99.90;;;;;;6153996;23;20020;-83
2021/11/28 11:14:57;;;;;;;11.98;8.93;;;16.20;99.90;;;;;;6152841;23;20501;-83
2021/11/28 11:17:27;;;;;;;12.05;8.35;;;16.50;99.90;;;;;;6154381;23;20112;-82
2021/11/28 11:20:00;;;;;;;12.18;7.32;;;17.00;99.90;;;;;;6153471;23;20021;-83
2021/11/28 11:23:40;;;;;;;10.75;6.80;;;17.10;99.90;;;;;;6153012;23;20454;-83
2021/11/28 11:26:18;;;;;;;12.55;6.82;;;17.30;99.90;;;;;;6180954;23;20036;-80
2021/11/28 11:29:10;;;;;;;9.90;6.65;;;16.80;99.90;;;;;;6154136;23;20076;-82
2021/11/28 11:31:42;;;;;;;10.00;6.45;;;17.30;99.90;;;;;;6131529;23;20021;-81
2021/11/28 11:34:28;;;;;;;9.00;6.50;;;17.90;99.90;;;;;;6153284;23;20021;-83
2021/11/28 11:37:08;;;;;;;13.30;6.75;;;18.50;99.90;;;;;;6131172;23;20059;-82
2021/11/28 11:39:35;;;;;;;9.23;5.57;;;18.70;99.90;;;;;;6133908;23;20017;-83
2021/11/28 11:42:08;;;;;;;69.47;42.13;;;19.30;99.90;;;;;;6134490;23;20036;-82
2021/11/28 11:44:35;;;;;;;166.02;95.95;;;20.20;99.90;;;;;;6184706;23;20023;-78
2021/11/28 11:47:03;;;;;;;44.78;28.40;;;20.70;99.90;;;;;;6185107;23;20019;-76
2021/11/28 11:49:31;;;;;;;24.35;13.75;;;20.70;97.00;;;;;;6184741;23;20052;-84
2021/11/28 11:51:58;;;;;;;30.85;17.25;;;20.40;96.60;;;;;;6159078;23;20424;-80
2021/11/28 11:54:39;;;;;;;21.45;13.45;;;20.60;98.30;;;;;;6184904;23;20013;-82
2021/11/28 11:57:25;;;;;;;19.77;13.02;;;20.80;96.30;;;;;;6184448;23;20451;-77
2021/11/28 12:00:13;;;;;;;23.50;13.48;;;21.20;96.60;;;;;;6158121;23;20103;-84
2021/11/28 12:02:42;;;;;;;25.23;16.48;;;21.20;96.90;;;;;;6158136;23;20048;-79
2021/11/28 12:05:24;;;;;;;20.08;13.43;;;21.30;98.10;;;;;;6184821;23;20354;-86
2021/11/28 12:08:20;;;;;;;20.73;14.38;;;21.40;96.60;;;;;;6157297;23;20020;-79
2021/11/28 12:10:47;;;;;;;20.55;12.25;;;21.00;97.50;;;;;;6184750;23;20502;-81
2021/11/28 12:13:34;;;;;;;78.80;51.90;;;20.90;98.30;;;;;;6184197;23;20469;-76
2021/11/28 12:16:07;;;;;;;55.85;40.40;;;20.80;96.90;;;;;;6133357;23;20032;-81
2021/11/28 12:18:44;;;;;;;27.02;17.65;;;20.40;97.30;;;;;;6158025;23;20098;-83
2021/11/28 12:21:20;;;;;;;23.42;15.23;;;20.60;97.40;;;;;;6183626;23;20017;-86
2021/11/28 12:24:11;;;;;;;20.15;12.70;;;20.70;97.60;;;;;;6157913;23;20203;-78
2021/11/28 12:26:59;;;;;;;18.92;11.93;;;20.30;97.70;;;;;;6184142;23;20024;-79
2021/11/28 12:29:29;;;;;;;33.08;21.90;;;20.20;98.50;;;;;;6157958;23;20088;-82
2021/11/28 12:32:18;;;;;;;83.75;53.97;;;20.00;98.60;;;;;;6184057;23;20329;-81
2021/11/28 12:34:52;;;;;;;38.00;25.45;;;19.50;99.10;;;;;;6184121;23;20013;-79
2021/11/28 12:37:26;;;;;;;78.45;51.65;;;18.70;99.50;;;;;;6183884;23;20464;-79
2021/11/28 12:39:57;;;;;;;135.95;84.53;;;18.60;99.90;;;;;;6183269;23;20021;-80
2021/11/28 12:42:25;;;;;;;;;;;18.60;99.90;;;;;;6185212;23;20021;-81
2021/11/28 12:44:52;;;;;;;97.60;65.47;;;18.30;99.90;;;;;;6159374;23;19946;-87
2021/11/28 12:47:23;;;;;;;64.70;44.45;;;18.30;99.90;;;;;;6133178;23;20103;-83
2021/11/28 12:50:17;;;;;;;45.58;31.75;;;18.10;99.90;;;;;;6184688;23;20076;-84
2021/11/28 12:52:49;;;;;;;21.38;12.63;;;17.80;99.90;;;;;;6157369;23;20031;-83
2021/11/28 12:55:21;;;;;;;28.52;18.13;;;17.40;99.90;;;;;;6133278;23;20096;-81
2021/11/28 12:58:01;;;;;;;24.70;16.40;;;17.70;99.90;;;;;;6127868;23;20383;-81
2021/11/28 13:00:40;;;;;;;22.02;13.88;;;17.70;99.90;;;;;;6151843;23;20076;-81
2021/11/28 13:03:11;;;;;;;22.30;14.95;;;17.70;99.90;;;;;;6128720;23;20021;-82
2021/11/28 13:05:43;;;;;;;20.55;14.15;;;17.80;99.90;;;;;;6103425;23;20124;-82
2021/11/28 13:08:14;;;;;;;16.95;12.15;;;17.80;99.90;;;;;;6103173;23;20025;-83
2021/11/28 13:10:44;;;;;;;18.95;13.00;;;17.70;99.90;;;;;;6127917;23;20029;-82
2021/11/28 13:13:30;;;;;;;13.50;7.90;;;17.50;99.90;;;;;;6103438;23;20021;-83
2021/11/28 13:15:58;;;;;;;13.63;7.28;;;16.80;99.90;;;;;;6127763;23;20104;-86
2021/11/28 13:18:29;;;;;;;14.52;8.68;;;16.30;99.90;;;;;;6103730;23;20044;-80
2021/11/28 13:21:03;;;;;;;16.02;8.77;;;16.80;99.90;;;;;;6103691;23;20041;-84
2021/11/28 13:23:41;;;;;;;12.85;7.80;;;17.20;99.90;;;;;;6131186;23;20024;-88
2021/11/28 13:26:09;;;;;;;45.88;27.63;;;17.00;99.90;;;;;;6042959;23;20029;-82
2021/11/28 13:28:40;;;;;;;23.75;16.48;;;16.40;99.90;;;;;;6169343;23;20017;-80
2021/11/28 13:31:22;;;;;;;40.75;23.05;;;15.90;99.90;;;;;;6183497;23;20399;-80
2021/11/28 13:33:59;;;;;;;30.52;15.50;;;15.80;99.90;;;;;;6184122;23;20320;-86
2021/11/28 13:36:52;;;;;;;14.35;9.63;;;15.70;99.90;;;;;;6133569;23;20044;-85